Time;durP1;ratioP1;P1;durP2;ratioP2;P2;SDS_P1;SDS_P2;PMS_P1;PMS_P2;Temp;Humidity;BMP_temperature;BMP_pressure;BME280_temperature;BME280_humidity;BME280_pressure;Samples;Min_cycle;Max_cycle;Signal;HPM_P1;HPM_P2
2023/12/19 00:00:45;;;;;;;;;;;8.10;99.90;;;;;;5077493;28;19925;-88
2023/12/19 00:03:14;;;;;;;;;;;8.10;99.90;;;;;;5077637;28;20011;-87
2023/12/19 00:05:41;;;;;;;;;;;8.10;99.90;;;;;;5042465;28;20010;-86
2023/12/19 00:08:07;;;;;;;;;;;8.10;99.90;;;;;;5037427;28;19996;-87
2023/12/19 00:10:33;;;;;;;;;;;8.00;99.90;;;;;;5077524;28;19920;-87
2023/12/19 00:12:59;;;;;;;;;;;8.00;99.90;;;;;;5064893;28;20424;-87
2023/12/19 00:15:24;;;;;;;;;;;8.00;99.90;;;;;;5037118;28;19920;-85
2023/12/19 00:17:50;;;;;;;;;;;8.00;99.90;;;;;;5039272;28;19955;-87
2023/12/19 00:20:16;;;;;;;;;;;8.00;99.90;;;;;;5075167;28;19920;-86
2023/12/19 00:22:42;;;;;;;;;;;8.00;99.90;;;;;;5065519;28;19935;-87
2023/12/19 00:25:07;;;;;;;;;;;8.10;99.90;;;;;;5073801;28;20596;-88
2023/12/19 00:27:33;;;;;;;;;;;8.10;99.90;;;;;;5040422;28;19982;-87
2023/12/19 00:29:58;;;;;;;;;;;8.10;99.90;;;;;;5034603;28;19924;-84
2023/12/19 00:32:24;;;;;;;;;;;8.10;99.90;;;;;;5060460;28;19932;-86
2023/12/19 00:34:49;;;;;;;;;;;8.10;99.90;;;;;;5038280;28;19924;-86
2023/12/19 00:37:15;;;;;;;;;;;8.10;99.90;;;;;;5041777;28;19924;-88
2023/12/19 00:39:41;;;;;;;;;;;8.10;99.90;;;;;;5087538;28;19924;-86
2023/12/19 00:42:06;;;;;;;;;;;8.20;99.90;;;;;;5059737;28;19928;-87
2023/12/19 00:44:36;;;;;;;;;;;8.20;99.90;;;;;;5042589;28;19927;-87
2023/12/19 00:47:02;;;;;;;;;;;8.20;99.90;;;;;;5047176;28;19924;-88
2023/12/19 00:49:27;;;;;;;;;;;8.20;99.90;;;;;;5061525;28;19924;-87
2023/12/19 00:51:53;;;;;;;;;;;8.20;99.90;;;;;;5047572;28;19923;-86
2023/12/19 00:54:18;;;;;;;;;;;8.20;99.90;;;;;;5089546;28;20354;-87
2023/12/19 00:56:44;;;;;;;;;;;8.20;99.90;;;;;;5052904;28;19932;-86
2023/12/19 00:59:09;;;;;;;;;;;7.90;99.90;;;;;;5073201;28;19924;-84
2023/12/19 01:01:35;;;;;;;;;;;8.20;99.90;;;;;;5076839;28;19924;-87
2023/12/19 01:04:01;;;;;;;;;;;8.20;99.90;;;;;;5059651;28;20428;-85
2023/12/19 01:06:26;;;;;;;;;;;8.20;99.90;;;;;;5056930;28;19924;-88
2023/12/19 01:08:53;;;;;;;;;;;8.20;99.90;;;;;;5059570;28;19935;-87
2023/12/19 01:11:18;;;;;;;;;;;8.20;99.90;;;;;;5051240;28;19925;-86
2023/12/19 01:13:44;;;;;;;;;;;8.20;99.90;;;;;;5045110;28;20006;-87
2023/12/19 01:16:09;;;;;;;;;;;8.20;99.90;;;;;;5064817;28;19928;-86
2023/12/19 01:18:35;;;;;;;;;;;8.20;99.90;;;;;;5074354;28;19920;-86
2023/12/19 01:21:01;;;;;;;;;;;8.20;99.90;;;;;;5055446;28;20283;-88
2023/12/19 01:23:26;;;;;;;;;;;8.30;99.90;;;;;;5038091;28;20007;-83
2023/12/19 01:25:52;;;;;;;;;;;8.30;99.90;;;;;;5061115;28;20073;-86
2023/12/19 01:28:17;;;;;;;;;;;8.20;99.90;;;;;;5073292;28;19993;-85
2023/12/19 01:30:43;;;;;;;;;;;8.30;99.90;;;;;;5039042;28;20368;-87
2023/12/19 01:33:09;;;;;;;;;;;8.30;99.90;;;;;;5037116;28;19930;-89
2023/12/19 01:35:35;;;;;;;;;;;8.30;99.90;;;;;;5077576;28;20424;-87
2023/12/19 01:38:01;;;;;;;;;;;8.30;99.90;;;;;;5073808;28;19932;-87
2023/12/19 01:40:33;;;;;;;;;;;8.30;99.90;;;;;;5057003;28;19935;-87
2023/12/19 01:42:59;;;;;;;;;;;8.30;99.90;;;;;;5038514;28;19931;-87
2023/12/19 01:45:25;;;;;;;;;;;8.30;99.90;;;;;;5073764;28;19924;-88
2023/12/19 01:47:51;;;;;;;;;;;8.30;99.90;;;;;;5033736;28;19935;-87
2023/12/19 01:50:17;;;;;;;;;;;8.30;99.90;;;;;;5055653;28;19920;-88
2023/12/19 01:52:48;;;;;;;;;;;8.30;99.90;;;;;;5075067;28;19920;-86
2023/12/19 01:55:14;;;;;;;;;;;8.30;99.90;;;;;;5048127;28;19927;-87
2023/12/19 01:57:40;;;;;;;;;;;8.30;99.90;;;;;;5055305;28;19981;-87
2023/12/19 02:00:06;;;;;;;;;;;8.50;99.90;;;;;;5057782;28;20002;-89
2023/12/19 02:02:32;;;;;;;;;;;8.30;99.90;;;;;;5053721;28;20381;-85
2023/12/19 02:04:58;;;;;;;;;;;8.30;99.90;;;;;;5051245;28;19974;-86
2023/12/19 02:07:23;;;;;;;;;;;8.30;99.90;;;;;;5058004;28;19924;-86
2023/12/19 02:09:51;;;;;;;;;;;8.30;99.90;;;;;;5047937;28;20010;-88
2023/12/19 02:12:17;;;;;;;;;;;8.30;99.90;;;;;;5059544;28;20368;-86
2023/12/19 02:14:43;;;;;;;;;;;8.30;99.90;;;;;;5037626;28;20068;-87
2023/12/19 02:17:10;;;;;;;;;;;8.30;99.90;;;;;;5053316;28;19928;-86
2023/12/19 02:19:45;;;;;;;;;;;8.30;99.90;;;;;;5060624;28;19998;-88
2023/12/19 02:22:12;;;;;;;;;;;8.30;99.90;;;;;;5049438;28;20035;-86
2023/12/19 02:24:37;;;;;;;;;;;8.30;99.90;;;;;;5043738;28;19926;-86
2023/12/19 02:27:03;;;;;;;;;;;8.30;99.90;;;;;;5058335;28;20381;-86
2023/12/19 02:29:29;;;;;;;;;;;8.30;99.90;;;;;;5073972;28;19920;-85
2023/12/19 02:31:54;;;;;;;;;;;8.20;99.90;;;;;;5063973;28;19927;-90
2023/12/19 02:34:20;;;;;;;;;;;8.30;99.90;;;;;;5041152;28;19982;-88
2023/12/19 02:36:45;;;;;;;;;;;8.30;99.90;;;;;;5059455;28;19928;-87
2023/12/19 02:39:11;;;;;;;;;;;8.30;99.90;;;;;;5065551;28;19924;-86
2023/12/19 02:41:37;;;;;;;;;;;8.20;99.90;;;;;;5073094;28;20005;-85
2023/12/19 02:44:02;;;;;;;;;;;8.20;99.90;;;;;;5040136;28;19957;-87
2023/12/19 02:46:28;;;;;;;;;;;8.30;99.90;;;;;;5040104;28;19949;-86
2023/12/19 02:48:54;;;;;;;;;;;8.30;99.90;;;;;;5072823;28;20372;-87
2023/12/19 02:51:20;;;;;;;;;;;8.30;99.90;;;;;;5072083;28;19989;-87
2023/12/19 02:53:46;;;;;;;;;;;8.30;99.90;;;;;;5040914;28;19927;-88
2023/12/19 02:56:11;;;;;;;;;;;8.20;99.90;;;;;;5040909;28;20261;-89
2023/12/19 02:58:37;;;;;;;;;;;8.30;99.90;;;;;;5049129;28;19924;-87
2023/12/19 03:01:05;;;;;;;;;;;8.30;99.90;;;;;;5055457;28;19959;-90
2023/12/19 03:03:31;;;;;;;;;;;8.30;99.90;;;;;;5050771;28;19931;-87
2023/12/19 03:05:57;;;;;;;;;;;8.30;99.90;;;;;;5036686;28;19929;-85
2023/12/19 03:08:22;;;;;;;;;;;8.30;99.90;;;;;;5055475;28;20357;-87
2023/12/19 03:10:48;;;;;;;;;;;8.30;99.90;;;;;;5059909;28;19920;-87
2023/12/19 03:13:14;;;;;;;;;;;8.40;99.90;;;;;;5067466;28;19924;-86
2023/12/19 03:15:39;;;;;;;;;;;8.30;99.90;;;;;;5073290;28;20081;-86
2023/12/19 03:18:05;;;;;;;;;;;8.40;99.90;;;;;;5066780;28;19931;-86
2023/12/19 03:20:31;;;;;;;;;;;8.40;99.90;;;;;;5059830;28;20335;-86
2023/12/19 03:22:56;;;;;;;;;;;8.30;99.90;;;;;;5073428;28;19920;-87
2023/12/19 03:25:22;;;;;;;;;;;8.30;99.90;;;;;;5078370;28;19928;-85
2023/12/19 03:27:48;;;;;;;;;;;8.30;99.90;;;;;;5072797;28;20373;-84
2023/12/19 03:30:13;;;;;;;;;;;8.90;99.90;;;;;;5065211;28;19919;-87
2023/12/19 03:32:39;;;;;;;;;;;8.30;99.90;;;;;;5046796;28;19978;-86
2023/12/19 03:35:05;;;;;;;;;;;8.30;99.90;;;;;;5065206;28;19924;-87
2023/12/19 03:37:31;;;;;;;;;;;8.30;99.90;;;;;;5033734;28;20398;-88
2023/12/19 03:39:57;;;;;;;;;;;8.30;99.90;;;;;;5067237;28;19924;-85
2023/12/19 03:42:23;;;;;;;;;;;8.30;99.90;;;;;;5054657;28;19989;-88
2023/12/19 03:44:49;;;;;;;;;;;8.30;99.90;;;;;;5035174;28;19920;-85
2023/12/19 03:47:15;;;;;;;;;;;8.20;99.90;;;;;;5054819;28;19935;-82
2023/12/19 03:49:40;;;;;;;;;;;8.20;99.90;;;;;;5073434;28;19920;-85
2023/12/19 03:52:07;;;;;;;;;;;8.30;99.90;;;;;;5034337;28;19981;-87
2023/12/19 03:54:33;;;;;;;;;;;8.20;99.90;;;;;;5057952;28;19920;-87
2023/12/19 03:56:58;;;;;;;;;;;8.20;99.90;;;;;;5058812;28;19931;-87
2023/12/19 03:59:24;;;;;;;;;;;8.20;99.90;;;;;;5053689;28;20260;-86
2023/12/19 04:01:51;;;;;;;;;;;8.20;99.90;;;;;;5088129;28;20000;-86
2023/12/19 04:04:17;;;;;;;;;;;8.10;99.90;;;;;;5033382;28;19920;-85
2023/12/19 04:06:43;;;;;;;;;;;8.10;99.90;;;;;;5068866;28;19947;-84
2023/12/19 04:09:09;;;;;;;;;;;8.10;99.90;;;;;;5053849;28;19973;-85
2023/12/19 04:11:35;;;;;;;;;;;8.10;99.90;;;;;;5071274;28;20308;-84
2023/12/19 04:14:01;;;;;;;;;;;8.10;99.90;;;;;;5067623;28;19920;-86
2023/12/19 04:16:27;;;;;;;;;;;8.00;99.90;;;;;;5059360;28;19924;-86
2023/12/19 04:18:52;;;;;;;;;;;8.00;99.90;;;;;;5057200;28;19931;-85
2023/12/19 04:21:18;;;;;;;;;;;8.00;99.90;;;;;;5075488;28;20390;-85
2023/12/19 04:23:43;;;;;;;;;;;8.00;99.90;;;;;;5050058;28;19920;-86
2023/12/19 04:26:16;;;;;;;;;;;8.00;99.90;;;;;;5038550;28;20268;-87
2023/12/19 04:28:43;;;;;;;;;;;8.00;99.90;;;;;;5079648;28;20420;-85
2023/12/19 04:31:09;;;;;;;;;;;8.00;99.90;;;;;;5058187;28;20353;-87
2023/12/19 04:33:34;;;;;;;;;;;8.00;99.90;;;;;;5054429;28;19978;-86
2023/12/19 04:36:00;;;;;;;;;;;7.90;99.90;;;;;;5071020;28;20352;-84
2023/12/19 04:38:25;;;;;;;;;;;8.00;99.90;;;;;;5070800;28;19955;-85
2023/12/19 04:40:51;;;;;;;;;;;7.90;99.90;;;;;;5068138;28;20207;-84
2023/12/19 04:43:17;;;;;;;;;;;8.50;99.90;;;;;;5039271;28;19924;-87
2023/12/19 04:45:43;;;;;;;;;;;7.90;99.90;;;;;;5055925;28;19924;-86
2023/12/19 04:48:08;;;;;;;;;;;7.90;99.90;;;;;;5056130;28;20248;-85
2023/12/19 04:50:34;;;;;;;;;;;7.90;99.90;;;;;;5042313;28;20007;-85
2023/12/19 04:53:00;;;;;;;;;;;7.90;99.90;;;;;;5067032;28;19923;-85
2023/12/19 04:55:25;;;;;;;;;;;7.90;99.90;;;;;;5044299;28;19920;-84
2023/12/19 04:57:51;;;;;;;;;;;7.90;99.90;;;;;;5081368;28;20304;-84
2023/12/19 05:00:16;;;;;;;;;;;7.90;99.90;;;;;;5043089;28;19973;-86
2023/12/19 05:02:42;;;;;;;;;;;8.00;99.90;;;;;;5074981;28;19928;-87
2023/12/19 05:05:08;;;;;;;;;;;7.90;99.90;;;;;;5076633;28;19920;-85
2023/12/19 05:07:33;;;;;;;;;;;7.90;99.90;;;;;;5064054;28;20377;-86
2023/12/19 05:09:59;;;;;;;;;;;7.90;99.90;;;;;;5073715;28;19967;-84
2023/12/19 05:12:25;;;;;;;;;;;7.90;99.90;;;;;;5050035;28;19927;-85
2023/12/19 05:14:51;;;;;;;;;;;7.90;99.90;;;;;;5101420;28;20420;-86
2023/12/19 05:17:17;;;;;;;;;;;7.90;99.90;;;;;;5064047;28;19926;-86
2023/12/19 05:19:43;;;;;;;;;;;7.90;99.90;;;;;;5092976;28;19920;-85
2023/12/19 05:22:09;;;;;;;;;;;7.90;99.90;;;;;;5076056;28;19927;-84
2023/12/19 05:24:37;;;;;;;;;;;7.90;99.90;;;;;;5057349;28;19920;-85
2023/12/19 05:27:04;;;;;;;;;;;7.90;99.90;;;;;;5056266;28;19997;-85
2023/12/19 05:29:29;;;;;;;;;;;7.90;99.90;;;;;;5038167;28;20007;-85
2023/12/19 05:31:55;;;;;;;;;;;7.90;99.90;;;;;;5091289;28;20007;-85
2023/12/19 05:34:20;;;;;;;;;;;7.90;99.90;;;;;;5066984;28;19920;-85
2023/12/19 05:36:46;;;;;;;;;;;7.90;99.90;;;;;;5050898;28;19990;-84
2023/12/19 05:39:12;;;;;;;;;;;7.90;99.90;;;;;;5086591;28;19934;-86
2023/12/19 05:41:38;;;;;;;;;;;7.90;99.90;;;;;;5045357;28;19978;-87
2023/12/19 05:44:03;;;;;;;;;;;7.90;99.90;;;;;;5040630;28;20034;-84
2023/12/19 05:46:29;;;;;;;;;;;7.90;99.90;;;;;;5054305;28;20379;-89
2023/12/19 05:48:54;;;;;;;;;;;7.90;99.90;;;;;;5037458;28;19921;-86
2023/12/19 05:51:20;;;;;;;;;;;7.90;99.90;;;;;;5077625;28;20014;-88
2023/12/19 05:53:46;;;;;;;;;;;7.90;99.90;;;;;;5040582;28;19919;-86
2023/12/19 05:56:13;;;;;;;;;;;7.90;99.90;;;;;;5045693;28;19925;-87
2023/12/19 05:58:39;;;;;;;;;;;7.90;99.90;;;;;;5063921;28;19920;-87
2023/12/19 06:01:04;;;;;;;;;;;7.90;99.90;;;;;;5040620;28;19931;-84
2023/12/19 06:03:30;;;;;;;;;;;7.90;99.90;;;;;;5036832;28;19928;-86
2023/12/19 06:05:55;;;;;;;;;;;7.90;99.90;;;;;;5033803;28;19933;-88
2023/12/19 06:08:22;;;;;;;;;;;7.90;99.90;;;;;;5029876;28;19920;-91
2023/12/19 06:10:47;;;;;;;;;;;7.90;99.90;;;;;;5057045;28;20007;-89
2023/12/19 06:13:13;;;;;;;;;;;8.00;99.90;;;;;;5038381;28;20058;-87
2023/12/19 06:15:39;;;;;;;;;;;7.90;99.90;;;;;;5037248;28;20345;-88
2023/12/19 06:18:04;;;;;;;;;;;7.90;99.90;;;;;;5050034;28;20002;-88
2023/12/19 06:20:30;;;;;;;;;;;7.90;99.90;;;;;;5056443;28;20326;-88
2023/12/19 06:22:56;;;;;;;;;;;7.90;99.90;;;;;;5045582;28;19932;-88
2023/12/19 06:25:21;;;;;;;;;;;8.00;99.90;;;;;;5034872;28;20001;-88
2023/12/19 06:27:47;;;;;;;;;;;8.00;99.90;;;;;;5057893;28;20015;-89
2023/12/19 06:30:13;;;;;;;;;;;8.00;99.90;;;;;;5059535;28;20004;-85
2023/12/19 06:32:40;;;;;;;;;;;8.00;99.90;;;;;;5029315;28;20011;-86
2023/12/19 06:35:07;;;;;;;;;;;8.00;99.90;;;;;;5071593;28;19939;-88
2023/12/19 06:37:34;;;;;;;;;;;8.00;99.90;;;;;;5036247;28;19964;-86
2023/12/19 06:39:59;;;;;;;;;;;8.00;99.90;;;;;;5043208;28;19924;-87
2023/12/19 06:42:25;;;;;;;;;;;8.00;99.90;;;;;;5063630;28;20329;-88
2023/12/19 06:44:51;;;;;;;;;;;8.00;99.90;;;;;;5075857;28;20003;-86
2023/12/19 06:47:17;;;;;;;;;;;8.00;99.90;;;;;;5061004;28;19936;-86
2023/12/19 06:49:43;;;;;;;;;;;8.00;99.90;;;;;;5036270;28;19960;-86
2023/12/19 06:52:09;;;;;;;;;;;8.10;99.90;;;;;;5050647;28;19935;-88
2023/12/19 06:54:38;;;;;;;;;;;8.00;99.90;;;;;;5070751;28;19920;-86
2023/12/19 06:57:04;;;;;;;;;;;8.00;99.90;;;;;;5048517;28;20446;-84
2023/12/19 06:59:33;;;;;;;;;;;8.10;99.90;;;;;;5049005;28;20015;-86
2023/12/19 07:01:58;;;;;;;;;;;8.10;99.90;;;;;;5033383;28;19997;-86
2023/12/19 07:04:24;;;;;;;;;;;8.10;99.90;;;;;;5046890;28;19924;-85
2023/12/19 07:06:49;;;;;;;;;;;8.10;99.90;;;;;;5065960;28;19979;-87
2023/12/19 07:09:15;;;;;;;;;;;8.10;99.90;;;;;;5055761;28;19921;-86
2023/12/19 07:11:41;;;;;;;;;;;8.10;99.90;;;;;;5053422;28;19979;-85
2023/12/19 07:14:07;;;;;;;;;;;8.10;99.90;;;;;;5050258;28;19924;-86
2023/12/19 07:16:33;;;;;;;;;;;8.00;99.90;;;;;;5053482;28;19920;-88
2023/12/19 07:19:00;;;;;;;;;;;8.10;99.90;;;;;;5036152;28;20011;-86
2023/12/19 07:21:26;;;;;;;;;;;8.10;99.90;;;;;;5042808;28;19932;-88
2023/12/19 07:23:53;;;;;;;;;;;8.10;99.90;;;;;;5040104;28;19924;-86
2023/12/19 07:26:22;;;;;;;;;;;8.10;99.90;;;;;;5044718;28;20005;-85
2023/12/19 07:28:49;;;;;;;;;;;8.10;99.90;;;;;;5040039;28;19978;-86
2023/12/19 07:31:41;;;;;;;;;;;8.10;99.90;;;;;;5036023;28;20318;-85
2023/12/19 07:34:06;;;;;;;;;;;8.10;99.90;;;;;;5038361;28;19920;-86
2023/12/19 07:36:33;;;;;;;;;;;8.10;99.90;;;;;;5041785;28;19928;-86
2023/12/19 07:38:59;;;;;;;;;;;8.10;99.90;;;;;;5052006;28;19920;-86
2023/12/19 07:41:26;;;;;;;;;;;8.10;99.90;;;;;;5034745;28;20379;-87
2023/12/19 07:43:52;;;;;;;;;;;8.10;99.90;;;;;;5050385;28;19924;-86
2023/12/19 07:46:19;;;;;;;;;;;8.10;99.90;;;;;;5019674;28;19989;-86
2023/12/19 07:48:45;;;;;;;;;;;8.10;99.90;;;;;;5050647;28;19920;-86
2023/12/19 07:51:17;;;;;;;;;;;8.10;99.90;;;;;;5031841;28;19925;-86
2023/12/19 07:53:43;;;;;;;;;;;8.10;99.90;;;;;;5036259;28;20021;-87
2023/12/19 07:56:09;;;;;;;;;;;8.10;99.90;;;;;;5042643;28;20338;-85
2023/12/19 07:58:35;;;;;;;;;;;8.20;99.90;;;;;;5028763;28;19982;-85
2023/12/19 08:01:00;;;;;;;;;;;8.10;99.90;;;;;;5030483;28;19928;-86
2023/12/19 08:03:27;;;;;;;;;;;8.10;99.90;;;;;;5036367;28;19921;-84
2023/12/19 08:05:55;;;;;;;;;;;8.20;99.90;;;;;;5054449;28;19924;-88
2023/12/19 08:08:25;;;;;;;;;;;8.10;99.90;;;;;;5056525;28;19964;-85
2023/12/19 08:10:51;;;;;;;;;;;8.20;99.90;;;;;;5021934;28;19951;-86
2023/12/19 08:13:17;;;;;;;;;;;8.20;99.90;;;;;;5028021;28;19920;-85
2023/12/19 08:15:43;;;;;;;;;;;8.20;99.90;;;;;;5017938;28;19921;-86
2023/12/19 08:18:09;;;;;;;;;;;8.20;99.90;;;;;;5037398;28;19943;-86
2023/12/19 08:20:35;;;;;;;;;;;8.20;99.90;;;;;;5019266;28;20003;-86
2023/12/19 08:23:01;;;;;;;;;;;8.20;99.90;;;;;;5035657;28;19925;-86
2023/12/19 08:25:27;;;;;;;;;;;8.20;99.90;;;;;;5037032;28;20005;-88
2023/12/19 08:27:53;;;;;;;;;;;8.20;99.90;;;;;;5035166;28;19920;-86
2023/12/19 08:30:19;;;;;;;;;;;8.20;99.90;;;;;;5065898;28;19931;-85
2023/12/19 08:32:44;;;;;;;;;;;8.30;99.90;;;;;;5070563;28;19920;-86
2023/12/19 08:35:10;;;;;;;;;;;8.30;99.90;;;;;;5037514;28;19935;-88
2023/12/19 08:37:36;;;;;;;;;;;8.30;99.90;;;;;;5075266;28;19955;-86
2023/12/19 08:40:03;;;;;;;;;;;9.30;99.90;;;;;;5040600;28;19924;-85
2023/12/19 08:42:29;;;;;;;;;;;8.20;99.90;;;;;;5073179;28;19963;-85
2023/12/19 08:44:55;;;;;;;;;;;8.30;99.90;;;;;;5050045;28;19928;-86
2023/12/19 08:47:21;;;;;;;;;;;8.30;99.90;;;;;;5057909;28;19924;-86
2023/12/19 08:49:47;;;;;;;;;;;8.30;99.90;;;;;;5059061;28;19924;-87
2023/12/19 08:52:13;;;;;;;;;;;8.30;99.90;;;;;;5089162;28;19932;-86
2023/12/19 08:54:38;;;;;;;;;;;8.30;99.90;;;;;;5058732;28;19931;-86
2023/12/19 08:57:04;;;;;;;;;;;8.40;99.90;;;;;;5041223;28;19924;-86
2023/12/19 08:59:31;;;;;;;;;;;8.40;99.90;;;;;;5049027;28;20388;-89
2023/12/19 09:01:56;;;;;;;;;;;8.40;99.90;;;;;;5073955;28;19926;-85
2023/12/19 09:04:22;;;;;;;;;;;8.40;99.90;;;;;;5058564;28;20483;-86
2023/12/19 09:06:48;;;;;;;;;;;8.40;99.90;;;;;;5056067;28;20001;-86
2023/12/19 09:09:14;;;;;;;;;;;8.40;99.90;;;;;;5042335;28;20411;-86
2023/12/19 09:11:39;;;;;;;;;;;8.40;99.90;;;;;;5028295;28;20407;-86
2023/12/19 09:14:05;;;;;;;;;;;8.40;99.90;;;;;;5068991;28;20018;-86
2023/12/19 09:16:32;;;;;;;;;;;8.50;99.90;;;;;;5058275;28;19920;-86
2023/12/19 09:18:59;;;;;;;;;;;8.50;99.90;;;;;;5055642;28;19924;-86
2023/12/19 09:21:26;;;;;;;;;;;8.80;99.90;;;;;;5058466;28;19934;-86
2023/12/19 09:23:52;;;;;;;;;;;6.70;99.90;;;;;;5082004;28;19931;-89
2023/12/19 09:26:17;;;;;;;;;;;8.50;99.90;;;;;;5079009;28;19931;-86
2023/12/19 09:28:43;;;;;;;;;;;8.50;99.90;;;;;;5056933;28;19955;-85
2023/12/19 09:31:08;;;;;;;;;;;8.50;99.90;;;;;;5058344;28;19920;-87
2023/12/19 09:33:37;;;;;;;;;;;8.60;99.90;;;;;;5067805;28;19920;-85
2023/12/19 09:36:07;;;;;;;;;;;8.60;99.90;;;;;;5036896;28;20011;-86
2023/12/19 09:38:33;;;;;;;;;;;;;;;;;;5046867;28;20520;-86
2023/12/19 09:40:59;;;;;;;;;;;8.60;99.90;;;;;;5058088;28;19931;-86
2023/12/19 09:43:24;;;;;;;;;;;8.60;99.90;;;;;;5064055;28;20314;-87
2023/12/19 09:45:50;;;;;;;;;;;8.70;99.90;;;;;;5057581;28;19939;-85
2023/12/19 09:48:17;;;;;;;;;;;8.70;99.90;;;;;;5051144;28;19921;-85
2023/12/19 09:50:43;;;;;;;;;;;8.70;99.90;;;;;;5041056;28;19973;-85
2023/12/19 09:53:09;;;;;;;;;;;8.70;99.90;;;;;;5056494;28;19921;-86
2023/12/19 09:55:42;;;;;;;;;;;;;;;;;;5053983;28;19924;-86
2023/12/19 09:58:08;;;;;;;;;;;8.80;99.90;;;;;;5080912;28;20372;-86
2023/12/19 10:00:36;;;;;;;;;;;8.80;99.90;;;;;;5058160;28;19924;-86
2023/12/19 10:03:03;;;;;;;;;;;8.80;99.90;;;;;;5077728;28;19925;-85
2023/12/19 10:05:29;;;;;;;;;;;8.80;99.90;;;;;;5062779;28;20013;-85
2023/12/19 10:07:58;;;;;;;;;;;8.90;99.90;;;;;;5052007;28;19924;-86
2023/12/19 10:10:28;;;;;;;;;;;;;;;;;;5051853;28;19931;-86
2023/12/19 10:12:54;;;;;;;;;;;9.00;99.90;;;;;;5063302;28;19920;-86
2023/12/19 10:15:19;;;;;;;;;;;9.10;99.90;;;;;;5039332;28;19920;-87
2023/12/19 10:18:04;;;;;;;;;;;9.10;99.90;;;;;;5039166;28;19924;-86
2023/12/19 10:20:30;;;;;;;;;;;9.10;99.90;;;;;;5074940;28;19924;-86
2023/12/19 10:23:03;;;;;;;;;;;9.20;99.90;;;;;;5070107;28;20003;-86
2023/12/19 10:25:29;;;;;;;;;;;9.20;99.90;;;;;;5036937;28;19924;-86
2023/12/19 10:28:05;;;;;;;;;;;9.10;99.90;;;;;;5038531;28;19925;-86
2023/12/19 10:30:31;;;;;;;;;;;9.20;99.90;;;;;;5046699;28;19920;-86
2023/12/19 10:32:57;;;;;;;;;;;9.10;99.90;;;;;;5037596;28;19931;-85
2023/12/19 10:35:23;;;;;;;;;;;;;;;;;;5072299;28;20318;-85
2023/12/19 10:37:49;;;;;;;;;;;;;;;;;;5071440;28;19971;-85
2023/12/19 10:40:19;;;;;;;;;;;;;;;;;;5049523;28;19921;-86
2023/12/19 10:42:45;;;;;;;;;;;;;;;;;;5051025;28;20518;-86
2023/12/19 10:45:11;;;;;;;;;;;;;;;;;;5055409;28;20007;-86
2023/12/19 10:47:38;;;;;;;;;;;;;;;;;;5047917;28;20454;-86
2023/12/19 10:50:05;;;;;;;;;;;;;;;;;;5073930;28;19931;-86
2023/12/19 10:52:31;;;;;;;;;;;;;;;;;;5056172;28;19967;-86
2023/12/19 10:54:57;;;;;;;;;;;;;;;;;;5047016;28;19994;-86
2023/12/19 10:57:23;;;;;;;;;;;;;;;;;;5069007;28;19920;-87
2023/12/19 10:59:49;;;;;;;;;;;;;;;;;;5068399;28;19977;-87
2023/12/19 11:02:15;;;;;;;;;;;;;;;;;;5049495;28;19924;-87
2023/12/19 11:04:44;;;;;;;;;;;;;;;;;;5055615;28;19920;-86
2023/12/19 11:07:11;;;;;;;;;;;;;;;;;;5062108;28;20011;-86
2023/12/19 11:09:37;;;;;;;;;;;;;;;;;;5067103;28;19924;-85
2023/12/19 11:12:03;;;;;;;;;;;;;;;;;;5062414;28;19930;-85
2023/12/19 11:14:29;;;;;;;;;;;;;;;;;;5053684;28;19920;-87
2023/12/19 11:16:55;;;;;;;;;;;;;;;;;;5060931;28;19925;-86
2023/12/19 11:19:21;;;;;;;;;;;;;;;;;;5047559;28;20015;-86
2023/12/19 11:21:47;;;;;;;;;;;;;;;;;;5054421;28;19936;-86
2023/12/19 11:24:13;;;;;;;;;;;;;;;;;;5053843;28;19920;-86
2023/12/19 11:26:39;;;;;;;;;;;;;;;;;;5056390;28;19932;-86
2023/12/19 11:29:05;;;;;;;;;;;;;;;;;;5055532;28;19921;-86
2023/12/19 11:31:31;;;;;;;;;;;;;;;;;;5060672;28;20271;-87
2023/12/19 11:33:57;;;;;;;;;;;;;;;;;;5061108;28;19924;-85
2023/12/19 11:36:23;;;;;;;;;;;;;;;;;;5043656;28;19928;-86
2023/12/19 11:38:49;;;;;;;;;;;;;;;;;;5038004;28;19942;-86
2023/12/19 11:41:15;;;;;;;;;;;;;;;;;;5051879;28;19924;-86
2023/12/19 11:43:41;;;;;;;;;;;;;;;;;;5036858;28;19982;-86
2023/12/19 11:46:07;;;;;;;;;;;;;;;;;;5035890;28;19924;-86
2023/12/19 11:48:34;;;;;;;;;;;;;;;;;;5054093;28;20329;-86
2023/12/19 11:51:00;;;;;;;;;;;;;;;;;;5033320;28;19971;-86
2023/12/19 11:53:26;;;;;;;;;;;;;;;;;;5066421;28;20296;-85
2023/12/19 11:55:52;;;;;;;;;;;;;;;;;;5061923;28;19971;-86
2023/12/19 11:58:21;;;;;;;;;;;;;;;;;;5027593;28;20010;-85
2023/12/19 12:00:47;;;;;;;;;;;;;;;;;;5022700;28;19986;-86
2023/12/19 12:03:13;;;;;;;;;;;;;;;;;;5023296;28;19932;-86
2023/12/19 12:05:39;;;;;;;;;;;;;;;;;;5022566;28;19932;-86
2023/12/19 12:08:04;;;;;;;;;;;;;;;;;;5025524;28;19928;-86
2023/12/19 12:10:31;;;;;;;;;;;;;;;;;;5022566;28;20346;-85
2023/12/19 12:12:59;;;;;;;;;;;;;;;;;;5021354;28;19932;-86
2023/12/19 12:15:25;;;;;;;;;;;9.60;99.90;;;;;;5023704;28;19920;-86
2023/12/19 12:18:01;;;;;;;;;;;9.60;99.90;;;;;;5056966;28;19982;-86
2023/12/19 12:20:26;;;;;;;;;;;9.60;99.90;;;;;;5065797;28;19921;-86
2023/12/19 12:22:55;;;;;;;;;;;9.50;99.90;;;;;;5027793;28;20395;-85
2023/12/19 12:25:22;;;;;;;;;;;9.50;99.90;;;;;;5040943;28;19924;-88
2023/12/19 12:27:48;;;;;;;;;;;9.50;99.90;;;;;;5022648;28;20003;-86
2023/12/19 12:30:14;;;;;;;;;;;9.50;99.90;;;;;;5036226;28;20061;-85
2023/12/19 12:32:40;;;;;;;;;;;9.40;99.90;;;;;;5022389;28;19936;-86
2023/12/19 12:35:28;;;;;;;;;;;9.50;99.90;;;;;;5044337;28;19921;-85
2023/12/19 12:37:58;;;;;;;;;;;9.40;99.90;;;;;;5058835;28;19924;-85
2023/12/19 12:40:23;;;;;;;;;;;9.50;99.90;;;;;;5059031;28;19920;-85
2023/12/19 12:42:49;;;;;;;;;;;9.50;99.90;;;;;;5073437;28;19939;-86
2023/12/19 12:45:15;;;;;;;;;;;9.40;99.90;;;;;;5057946;28;19921;-86
2023/12/19 12:47:42;;;;;;;;;;;9.40;99.90;;;;;;5056445;28;19943;-85
2023/12/19 12:50:08;;;;;;;;;;;9.40;99.90;;;;;;5066524;28;19924;-85
2023/12/19 12:52:33;;;;;;;;;;;9.50;99.90;;;;;;5067342;28;19920;-85
2023/12/19 12:55:00;;;;;;;;;;;9.50;99.90;;;;;;5068574;28;19974;-86
2023/12/19 12:57:25;;;;;;;;;;;9.50;99.90;;;;;;5065327;28;20264;-85
2023/12/19 12:59:51;;;;;;;;;;;9.50;99.90;;;;;;5072417;28;19924;-86
2023/12/19 13:02:16;;;;;;;;;;;9.50;99.90;;;;;;5054802;28;20522;-85
2023/12/19 13:04:42;;;;;;;;;;;9.50;99.90;;;;;;5047050;28;20010;-85
2023/12/19 13:07:08;;;;;;;;;;;9.50;99.90;;;;;;5046672;28;19925;-86
2023/12/19 13:09:34;;;;;;;;;;;9.50;99.90;;;;;;5047006;28;19924;-86
2023/12/19 13:12:00;;;;;;;;;;;9.50;99.90;;;;;;5069441;28;19970;-87
2023/12/19 13:14:26;;;;;;;;;;;9.50;99.90;;;;;;5048209;28;19920;-86
2023/12/19 13:16:51;;;;;;;;;;;9.50;99.90;;;;;;5038391;28;19923;-85
2023/12/19 13:19:18;;;;;;;;;;;9.50;99.90;;;;;;5032774;28;20009;-86
2023/12/19 13:21:43;;;;;;;;;;;9.50;99.90;;;;;;5040303;28;20304;-86
2023/12/19 13:24:10;;;;;;;;;;;9.50;99.90;;;;;;5058810;28;19931;-87
2023/12/19 13:26:35;;;;;;;;;;;8.90;99.90;;;;;;5045883;28;19997;-86
2023/12/19 13:29:01;;;;;;;;;;;9.50;99.90;;;;;;5065286;28;20404;-85
2023/12/19 13:31:29;;;;;;;;;;;9.40;99.90;;;;;;5057711;28;19971;-85
2023/12/19 13:33:54;;;;;;;;;;;9.40;99.90;;;;;;5058772;28;19993;-85
2023/12/19 13:36:21;;;;;;;;;;;9.40;99.90;;;;;;5044612;28;19936;-85
2023/12/19 13:38:47;;;;;;;;;;;9.40;99.90;;;;;;5039022;28;19928;-86
2023/12/19 13:41:15;;;;;;;;;;;9.40;99.90;;;;;;5037226;28;19920;-86
2023/12/19 13:43:41;;;;;;;;;;;9.40;99.90;;;;;;5036825;28;19960;-86
2023/12/19 13:46:06;;;;;;;;;;;9.40;99.90;;;;;;5053698;28;19971;-85
2023/12/19 13:48:32;;;;;;;;;;;9.40;99.90;;;;;;5036736;28;20417;-85
2023/12/19 13:50:58;;;;;;;;;;;9.30;99.90;;;;;;5048944;28;19979;-86
2023/12/19 13:53:23;;;;;;;;;;;9.30;99.90;;;;;;5009683;28;19972;-85
2023/12/19 13:55:49;;;;;;;;;;;9.40;99.90;;;;;;5038241;28;20295;-85
2023/12/19 13:58:15;;;;;;;;;;;9.30;99.90;;;;;;5026003;28;20405;-86
2023/12/19 14:00:41;;;;;;;;;;;9.30;99.90;;;;;;5023467;28;19925;-85
2023/12/19 14:03:06;;;;;;;;;;;9.20;99.90;;;;;;5027319;28;19920;-86
2023/12/19 14:05:32;;;;;;;;;;;9.20;99.90;;;;;;5040774;28;19935;-86
2023/12/19 14:08:00;;;;;;;;;;;9.20;99.90;;;;;;5034403;28;19921;-85
2023/12/19 14:10:29;;;;;;;;;;;9.20;99.90;;;;;;5036773;28;19927;-85
2023/12/19 14:12:55;;;;;;;;;;;9.10;99.90;;;;;;5034120;28;19931;-87
2023/12/19 14:15:22;;;;;;;;;;;8.00;99.90;;;;;;5054573;28;19924;-86
2023/12/19 14:17:48;;;;;;;;;;;9.10;99.90;;;;;;5027826;28;19967;-86
2023/12/19 14:20:13;;;;;;;;;;;9.10;99.90;;;;;;5032548;28;20392;-85
2023/12/19 14:22:39;;;;;;;;;;;9.00;99.90;;;;;;5051429;28;19981;-86
2023/12/19 14:25:06;;;;;;;;;;;9.00;99.90;;;;;;5034640;28;19974;-85
2023/12/19 14:27:32;;;;;;;;;;;9.00;99.90;;;;;;5033914;28;19978;-86
2023/12/19 14:29:58;;;;;;;;;;;9.00;99.90;;;;;;5034841;28;20521;-86
2023/12/19 14:32:24;;;;;;;;;;;9.00;99.90;;;;;;5051715;28;19924;-85
2023/12/19 14:34:49;;;;;;;;;;;9.00;99.90;;;;;;5033467;28;19929;-85
2023/12/19 14:37:15;;;;;;;;;;;9.00;99.90;;;;;;5069587;28;20019;-86